< < Back
Terminal Aerodrome Forecast


Current Version              Previous Versions:   1  2  3  4  5  6  7  8  9  

Terminal Aerodrome Forecast

593
FTUS42 KGSP 272320
TAFHKY
TAF
KHKY 272320Z 2800/2824 25005KT P6SM FEW060 SCT250
      TEMPO 2800/2804 25009G17KT -TSRA SCT060CB BKN250
     FM281100 VRB03KT 6SM BR SCT250
     FM281300 23006KT P6SM FEW060 SCT250
     FM281800 22010KT P6SM SCT050 BKN250 PROB30 2818/2824 4SM -TSRA
      BKN200CB BKN250=

Latest METAR

471
SAUS70 KWBC 280400 RRI
MTRHKY
METAR KHKY 280353Z 03003KT 10SM FEW070 26/23 A2999 RMK AO2 SLP131
T02560228


USA.gov is the U.S. government's official web portal to all federal, state and local government web resources and services.